Donna Kay — WDD9650 — position and weather

sailwx.info

Track history (hours):
 
Tides and Currents Weather Stations Pressure Air Temp Water Temp Dewpoint Dewpoint Depression Visibility Wind Speed Wind Dir Waves Ship Positions

Donna Kay

Owner: Vane Line Bunkering, Philadelphia, PA. More information available from US FCC via Universal Licensing System and Coast Guard Vessel Documentation Center.

Last reported at 2017-Sep-19 18:31 UTC. Time now 2017-Sep-19 18:47 UTC.
Position N 39°50' W 075°23'.

Length 22 m; draft 2.3 m.

Type: Tug. MMSI: 367314440.

Date/timePositionNaut miles runAvg speedWind from/ knotsBaromVisibWave heightAir tempDewpointWater temp
2017-Sep-19 18:31N 39°50' W 075°23'0 0.7
2017-Sep-19 18:00N 39°50' W 075°23'2 4.6
2017-Sep-19 17:30N 39°51' W 075°20'2 4.1
2017-Sep-19 17:00N 39°51' W 075°17'1 2.7
2017-Sep-19 16:31N 39°51' W 075°16'0 0.0
2017-Sep-19 16:01N 39°51' W 075°16'0 0.0
2017-Sep-19 15:30N 39°51' W 075°16'0 0.1
2017-Sep-19 15:00N 39°51' W 075°16'0 0.0
2017-Sep-19 14:30N 39°51' W 075°16'0 0.0
2017-Sep-19 14:00N 39°51' W 075°16'0 0.0
2017-Sep-19 13:30N 39°51' W 075°16'0 0.0
2017-Sep-19 13:00N 39°51' W 075°16'0 0.0
2017-Sep-19 12:30N 39°51' W 075°16'0 0.0
2017-Sep-19 12:00N 39°51' W 075°16'0 0.0
2017-Sep-19 11:30N 39°51' W 075°16'0 0.0
2017-Sep-19 11:00N 39°51' W 075°16'0 0.0
2017-Sep-19 10:30N 39°51' W 075°16'0 0.5
2017-Sep-19 10:00N 39°51' W 075°16'0 0.0
2017-Sep-19 09:30N 39°51' W 075°16'0 0.0
2017-Sep-19 09:00N 39°51' W 075°16'4 7.8
2017-Sep-19 08:30N 39°53' W 075°11'4 7.5
2017-Sep-19 08:00N 39°56' W 075°08'4 8.3
2017-Sep-19 07:31N 39°59' W 075°05'1 1.7
2017-Sep-19 07:00N 39°59' W 075°06'3 6.3
2017-Sep-19 06:30N 39°56' W 075°08'3 6.6
2017-Sep-19 06:00N 39°53' W 075°09'3 5.7
2017-Sep-19 05:30N 39°54' W 075°12'0 0.7
2017-Sep-19 05:00N 39°54' W 075°12'0 0.4
2017-Sep-19 04:30N 39°54' W 075°12'0 0.0
2017-Sep-19 04:00N 39°54' W 075°12'0 0.0
2017-Sep-19 03:30N 39°54' W 075°12'0 0.0
2017-Sep-19 03:00N 39°54' W 075°12'0 0.0
2017-Sep-19 02:30N 39°54' W 075°12'0 0.0
2017-Sep-19 02:00N 39°54' W 075°12'0 0.0
2017-Sep-19 01:30N 39°54' W 075°12'0 0.0
2017-Sep-19 01:00N 39°54' W 075°12'0 0.0
2017-Sep-19 00:30N 39°54' W 075°12'0 0.0
2017-Sep-19 00:01N 39°54' W 075°12'0 0.0
2017-Sep-18 23:30N 39°54' W 075°12'0 0.0
2017-Sep-18 23:00N 39°54' W 075°12'0 0.0
2017-Sep-18 22:30N 39°54' W 075°12'0 0.0
2017-Sep-18 22:00N 39°54' W 075°12'0 0.0
2017-Sep-18 21:30N 39°54' W 075°12'0 0.0
2017-Sep-18 21:00N 39°54' W 075°12'1 1.9
2017-Sep-18 20:30N 39°53' W 075°12'3 6.5
2017-Sep-18 20:01N 39°51' W 075°16'0 0.3
2017-Sep-18 19:31N 39°51' W 075°16'0 0.0
2017-Sep-18 19:01N 39°51' W 075°16'0 0.0
2017-Sep-18 18:30N 39°51' W 075°16'0 0.0
2017-Sep-18 18:00N 39°51' W 075°16'0 0.0
2017-Sep-18 17:30N 39°51' W 075°16'0 0.0
2017-Sep-18 17:00N 39°51' W 075°16'0 0.0
2017-Sep-18 16:30N 39°51' W 075°16'0 0.0
2017-Sep-18 16:00N 39°51' W 075°16'0 0.6
2017-Sep-18 15:30N 39°51' W 075°16'0 0.0
2017-Sep-18 15:00N 39°51' W 075°16'0 0.5
2017-Sep-18 14:30N 39°51' W 075°16'0 0.0
2017-Sep-18 14:01N 39°51' W 075°16'0 0.0
2017-Sep-18 13:30N 39°51' W 075°16'0 0.0
2017-Sep-18 13:00N 39°51' W 075°16'0 0.0
2017-Sep-18 12:30N 39°51' W 075°16'0 0.0
2017-Sep-18 12:00N 39°51' W 075°16'0 0.0
2017-Sep-18 11:30N 39°51' W 075°16'0 0.0
2017-Sep-18 11:00N 39°51' W 075°16'0 0.0
2017-Sep-18 10:30N 39°51' W 075°16'0 0.5
2017-Sep-18 10:00N 39°51' W 075°16'0 0.5
2017-Sep-18 09:30N 39°51' W 075°16'3 6.6
2017-Sep-18 09:00N 39°51' W 075°20'2 4.8
2017-Sep-18 08:30N 39°50' W 075°23'0 0.0
2017-Sep-18 08:00N 39°50' W 075°23'0 0.0
2017-Sep-18 07:30N 39°50' W 075°23'0 0.0
2017-Sep-18 07:00N 39°50' W 075°23'0 0.0
2017-Sep-18 06:30N 39°50' W 075°23'0 0.0
2017-Sep-18 06:00N 39°50' W 075°23'0 0.0
2017-Sep-18 05:30N 39°50' W 075°23'0 0.0
2017-Sep-18 05:00N 39°50' W 075°23'0 0.0
2017-Sep-18 04:30N 39°50' W 075°23'0 0.0
2017-Sep-18 04:00N 39°50' W 075°23'0 0.0
2017-Sep-18 03:30N 39°50' W 075°23'0 0.0
2017-Sep-18 03:00N 39°50' W 075°23'0 0.0
2017-Sep-18 02:30N 39°50' W 075°23'0 0.0
2017-Sep-18 02:00N 39°50' W 075°23'0 0.0
2017-Sep-18 01:30N 39°50' W 075°23'0 0.0
2017-Sep-18 01:00N 39°50' W 075°23'0 0.0
2017-Sep-18 00:30N 39°50' W 075°23'0 0.0
2017-Sep-18 00:00N 39°50' W 075°23'0 0.0
2017-Sep-17 23:30N 39°50' W 075°23'0 0.0
2017-Sep-17 23:00N 39°50' W 075°23'0 0.0
2017-Sep-17 22:31N 39°50' W 075°23'0 0.0
2017-Sep-17 22:01N 39°50' W 075°23'0 0.0
2017-Sep-17 21:31N 39°50' W 075°23'0 0.0
2017-Sep-17 21:01N 39°50' W 075°23'0 0.0
2017-Sep-17 20:31N 39°50' W 075°23'0 0.0
2017-Sep-17 20:00N 39°50' W 075°23'0 0.0
2017-Sep-17 19:31N 39°50' W 075°23'0 0.0
2017-Sep-17 19:01N 39°50' W 075°23'0 0.0
2017-Sep-17 18:31N 39°50' W 075°23'0 0.0
2017-Sep-17 18:01N 39°50' W 075°23'0 0.0
2017-Sep-17 17:30N 39°50' W 075°23'0 0.0
2017-Sep-17 17:01N 39°50' W 075°23'0 0.0
2017-Sep-17 16:30N 39°50' W 075°23'0 0.0
2017-Sep-17 16:01N 39°50' W 075°23'0 0.0
2017-Sep-17 15:31N 39°50' W 075°23'0 0.0
2017-Sep-17 15:01N 39°50' W 075°23'0 0.0
2017-Sep-17 14:30N 39°50' W 075°23'0 0.0
2017-Sep-17 14:00N 39°50' W 075°23'0 0.0
2017-Sep-17 13:30N 39°50' W 075°23'0 0.0
2017-Sep-17 13:00N 39°50' W 075°23'0 0.0
2017-Sep-17 12:30N 39°50' W 075°23'0 0.0
2017-Sep-17 12:00N 39°50' W 075°23'0 0.0
2017-Sep-17 11:30N 39°50' W 075°23'0 0.0
2017-Sep-17 11:00N 39°50' W 075°23'0 0.0
2017-Sep-17 10:30N 39°50' W 075°23'0 0.0
2017-Sep-17 10:00N 39°50' W 075°23'0 0.0
2017-Sep-17 09:30N 39°50' W 075°23'0 0.0
2017-Sep-17 09:00N 39°50' W 075°23'0 0.0
2017-Sep-17 08:30N 39°50' W 075°23'0 0.0
2017-Sep-17 08:00N 39°50' W 075°23'0 0.0
2017-Sep-17 07:30N 39°50' W 075°23'0 0.0
2017-Sep-17 07:00N 39°50' W 075°23'0 0.0
2017-Sep-17 06:30N 39°50' W 075°23'0 0.0
2017-Sep-17 06:00N 39°50' W 075°23'0 0.0
2017-Sep-17 05:31N 39°50' W 075°23'0 0.0
2017-Sep-17 05:01N 39°50' W 075°23'0 0.0
2017-Sep-17 04:30N 39°50' W 075°23'0 0.0
2017-Sep-17 04:00N 39°50' W 075°23'0 0.0
2017-Sep-17 03:30N 39°50' W 075°23'0 0.0
2017-Sep-17 03:00N 39°50' W 075°23'0 0.0
2017-Sep-17 02:31N 39°50' W 075°23'0 0.0
2017-Sep-17 02:01N 39°50' W 075°23'0 0.0
2017-Sep-17 01:30N 39°50' W 075°23'0 0.0
2017-Sep-17 01:00N 39°50' W 075°23'1 2.6
2017-Sep-17 00:30N 39°50' W 075°22'3 5.9
2017-Sep-17 00:01N 39°51' W 075°18'2 3.3
2017-Sep-16 23:31N 39°51' W 075°16'0 0.5
2017-Sep-16 23:00N 39°51' W 075°16'0 0.0
2017-Sep-16 22:30N 39°51' W 075°16'0 0.0
2017-Sep-16 22:01N 39°51' W 075°16'0 0.0
2017-Sep-16 21:30N 39°51' W 075°16'0 0.0
2017-Sep-16 21:01N 39°51' W 075°16'0 0.0
2017-Sep-16 20:31N 39°51' W 075°16'0 0.0
2017-Sep-16 20:01N 39°51' W 075°16'0 0.0
2017-Sep-16 19:30N 39°51' W 075°16'0 0.0
2017-Sep-16 19:00N 39°51' W 075°16'0 0.0
2017-Sep-16 18:30N 39°51' W 075°16'0 0.0
2017-Sep-16 18:00N 39°51' W 075°16'0 0.0
2017-Sep-16 17:30N 39°51' W 075°16'0 0.0
2017-Sep-16 17:01N 39°51' W 075°16'0 0.1
2017-Sep-16 16:31N 39°51' W 075°16'0 0.0
2017-Sep-16 16:00N 39°51' W 075°16'0 0.0
2017-Sep-16 15:30N 39°51' W 075°16'0 0.0
2017-Sep-16 15:00N 39°51' W 075°16'0 0.0
2017-Sep-16 14:31N 39°51' W 075°16'0 0.0
2017-Sep-16 14:01N 39°51' W 075°16'0 0.0
2017-Sep-16 13:30N 39°51' W 075°16'0 0.0
2017-Sep-16 13:00N 39°51' W 075°16'0 0.1
2017-Sep-16 12:31N 39°51' W 075°15'1 2.1
2017-Sep-16 12:00N 39°51' W 075°17'5 9.6
2017-Sep-16 11:30N 39°50' W 075°23'0 0.3
2017-Sep-16 11:01N 39°50' W 075°23'0 0.0
2017-Sep-16 10:30N 39°50' W 075°23'0 0.0
2017-Sep-16 10:00N 39°50' W 075°23'0 0.0
2017-Sep-16 09:31N 39°50' W 075°23'0 0.0
2017-Sep-16 09:00N 39°50' W 075°23'0 0.0
2017-Sep-16 08:31N 39°50' W 075°23'0 0.0
2017-Sep-16 08:00N 39°50' W 075°23'0 0.0
2017-Sep-16 07:31N 39°50' W 075°23'0 0.0
2017-Sep-16 07:01N 39°50' W 075°23'0 0.0
2017-Sep-16 06:31N 39°50' W 075°23'0 0.0
2017-Sep-16 06:01N 39°50' W 075°23'0 0.0
2017-Sep-16 05:31N 39°50' W 075°23'0 0.0
2017-Sep-16 05:01N 39°50' W 075°23'0 0.0
2017-Sep-16 04:31N 39°50' W 075°23'0 0.0
2017-Sep-16 04:00N 39°50' W 075°23'0 0.0
2017-Sep-16 03:31N 39°50' W 075°23'0 0.0
2017-Sep-16 03:00N 39°50' W 075°23'0 0.0
2017-Sep-16 02:30N 39°50' W 075°23'0 0.0
2017-Sep-16 02:00N 39°50' W 075°23'0 0.0
2017-Sep-16 01:30N 39°50' W 075°23'0 0.0
2017-Sep-16 01:00N 39°50' W 075°23'0 0.0
2017-Sep-16 00:31N 39°50' W 075°23'0 0.0
2017-Sep-16 00:00N 39°50' W 075°23'3 5.1
2017-Sep-15 23:30N 39°51' W 075°20'3 6.4
2017-Sep-15 23:01N 39°51' W 075°16'0 0.7
2017-Sep-15 22:31N 39°51' W 075°16'0 0.1
2017-Sep-15 22:01N 39°51' W 075°16'0 0.0
2017-Sep-15 21:31N 39°51' W 075°16'0 0.0
2017-Sep-15 21:01N 39°51' W 075°16'0 0.0
2017-Sep-15 20:30N 39°51' W 075°16'0 0.0
2017-Sep-15 20:01N 39°51' W 075°16'0 0.0
2017-Sep-15 19:30N 39°51' W 075°16'0 0.0
2017-Sep-15 19:01N 39°51' W 075°16'0 0.0
2017-Sep-15 18:30N 39°51' W 075°16'0 0.0
2017-Sep-15 18:01N 39°51' W 075°16'0 0.0
2017-Sep-15 17:31N 39°51' W 075°16'0 0.0
2017-Sep-15 17:00N 39°51' W 075°16'0 0.0
2017-Sep-15 16:31N 39°51' W 075°16'0 0.1
2017-Sep-15 16:01N 39°51' W 075°16'0 0.0
2017-Sep-15 15:31N 39°51' W 075°16'0 0.0
2017-Sep-15 15:01N 39°51' W 075°16'0 0.0
2017-Sep-15 14:30N 39°51' W 075°16'0 0.0
2017-Sep-15 14:00N 39°51' W 075°16'0 0.0
2017-Sep-15 13:30N 39°51' W 075°16'0 0.0
2017-Sep-15 13:00N 39°51' W 075°16'0 0.0
2017-Sep-15 12:30N 39°51' W 075°16'0 0.2
2017-Sep-15 12:01N 39°51' W 075°15'0 0.5
2017-Sep-15 11:30N 39°51' W 075°16'0 0.0
2017-Sep-15 11:01N 39°51' W 075°16'0 0.0
2017-Sep-15 10:31N 39°51' W 075°16'0 0.3
2017-Sep-15 10:00N 39°51' W 075°16'4 8.8
2017-Sep-15 09:31N 39°50' W 075°22'3 6.0
2017-Sep-15 09:01N 39°48' W 075°24'0 0.1
2017-Sep-15 08:30N 39°48' W 075°24'1 2.3
2017-Sep-15 08:00N 39°49' W 075°23'4 7.6
2017-Sep-15 07:30N 39°51' W 075°19'4 7.7
2017-Sep-15 07:00N 39°52' W 075°14'4 7.5
2017-Sep-15 06:30N 39°53' W 075°09'3 6.8
2017-Sep-15 06:00N 39°56' W 075°08'4 7.0
2017-Sep-15 05:30N 39°59' W 075°05'1 1.3
2017-Sep-15 05:00N 39°59' W 075°04'1 0.9
2017-Sep-15 04:27N 39°59' W 075°05'0 0.0
2017-Sep-15 04:00N 39°59' W 075°05'0 0.0
2017-Sep-15 03:30N 39°59' W 075°05'0 0.0
2017-Sep-15 03:00N 39°59' W 075°05'0 0.0
2017-Sep-15 02:30N 39°59' W 075°05'0 0.0
2017-Sep-15 02:00N 39°59' W 075°05'0 0.0
2017-Sep-15 01:31N 39°59' W 075°05'0 0.0
2017-Sep-15 01:01N 39°59' W 075°05'0 0.5
2017-Sep-15 00:31N 39°59' W 075°05'4 8.3
2017-Sep-15 00:00N 39°55' W 075°08'1 2.9
2017-Sep-14 23:30N 39°54' W 075°08'0 0.1
2017-Sep-14 23:00N 39°54' W 075°09'0 0.0
2017-Sep-14 22:31N 39°54' W 075°09'0 0.0
2017-Sep-14 22:00N 39°54' W 075°09'0 0.0
2017-Sep-14 21:30N 39°54' W 075°09'0 0.0
2017-Sep-14 21:00N 39°54' W 075°09'0 0.0
2017-Sep-14 20:30N 39°54' W 075°09'0 0.0
2017-Sep-14 20:01N 39°54' W 075°09'0 0.6
2017-Sep-14 19:30N 39°54' W 075°08'3 5.2
2017-Sep-14 19:01N 39°53' W 075°11'1 2.3
2017-Sep-14 18:30N 39°54' W 075°12'0 0.0
2017-Sep-14 18:00N 39°54' W 075°12'0 0.4
2017-Sep-14 17:31N 39°54' W 075°13'1 2.7
2017-Sep-14 17:01N 39°53' W 075°12'3 5.7
2017-Sep-14 16:30N 39°54' W 075°08'4 7.2
2017-Sep-14 16:01N 39°58' W 075°08'3 5.9
2017-Sep-14 15:30N 39°59' W 075°05'2 3.4
2017-Sep-14 15:01N 39°58' W 075°07'3 6.7
2017-Sep-14 14:31N 39°55' W 075°08'1 2.6
2017-Sep-14 14:01N 39°54' W 075°09'0 0.0
2017-Sep-14 13:31N 39°54' W 075°09'0 0.0
2017-Sep-14 13:01N 39°54' W 075°09'0 0.0
2017-Sep-14 12:31N 39°54' W 075°09'2 3.0
2017-Sep-14 12:00N 39°53' W 075°10'4 8.9
2017-Sep-14 11:31N 39°51' W 075°15'5 9.1
2017-Sep-14 11:00N 39°50' W 075°21'1 3.0
2017-Sep-14 10:31N 39°50' W 075°23'0 0.0
2017-Sep-14 10:00N 39°50' W 075°23'0 0.0
2017-Sep-14 09:31N 39°50' W 075°23'0 0.0
2017-Sep-14 09:00N 39°50' W 075°23'0 0.0
2017-Sep-14 08:31N 39°50' W 075°23'0 0.0
2017-Sep-14 08:00N 39°50' W 075°23'0 0.0
2017-Sep-14 07:31N 39°50' W 075°23'0 0.0
2017-Sep-14 07:00N 39°50' W 075°23'0 0.0
2017-Sep-14 06:30N 39°50' W 075°23'0 0.0
2017-Sep-14 06:01N 39°50' W 075°23'0 0.0
2017-Sep-14 05:30N 39°50' W 075°23'0 0.0
2017-Sep-14 05:01N 39°50' W 075°23'0 0.0
2017-Sep-14 04:31N 39°50' W 075°23'0 0.0
2017-Sep-14 04:01N 39°50' W 075°23'0 0.0
2017-Sep-14 03:31N 39°50' W 075°23'0 0.0
2017-Sep-14 03:00N 39°50' W 075°23'0 0.0
2017-Sep-14 02:31N 39°50' W 075°23'0 0.0
2017-Sep-14 02:00N 39°50' W 075°23'0 0.0
2017-Sep-14 01:31N 39°50' W 075°23'0 0.0
2017-Sep-14 01:00N 39°50' W 075°23'0 0.0
2017-Sep-14 00:30N 39°50' W 075°23'0 0.0
2017-Sep-14 00:00N 39°50' W 075°23'0 0.0
2017-Sep-13 23:30N 39°50' W 075°23'0 0.0
2017-Sep-13 23:00N 39°50' W 075°23'0 0.1
2017-Sep-13 22:30N 39°50' W 075°23'3 5.7
2017-Sep-13 22:00N 39°51' W 075°20'3 6.1
2017-Sep-13 21:31N 39°51' W 075°16'0 0.6
2017-Sep-13 21:00N 39°51' W 075°16'0 0.0
2017-Sep-13 20:31N 39°51' W 075°16'0 0.0
2017-Sep-13 20:00N 39°51' W 075°16'0 0.0
2017-Sep-13 19:30N 39°51' W 075°16'0 0.0
2017-Sep-13 19:00N 39°51' W 075°16'0 0.0
2017-Sep-13 18:30N 39°51' W 075°16'0 0.0
2017-Sep-13 18:00N 39°51' W 075°16'0 0.0
2017-Sep-13 17:30N 39°51' W 075°16'0 0.0
2017-Sep-13 17:00N 39°51' W 075°16'0 0.0
2017-Sep-13 16:30N 39°51' W 075°16'0 0.0
2017-Sep-13 16:00N 39°51' W 075°16'0 0.0
2017-Sep-13 15:30N 39°51' W 075°16'0 0.0
2017-Sep-13 15:00N 39°51' W 075°16'0 0.0
2017-Sep-13 14:31N 39°51' W 075°16'0 0.1
2017-Sep-13 14:01N 39°51' W 075°16'0 0.0
2017-Sep-13 13:30N 39°51' W 075°16'0 0.0
2017-Sep-13 13:00N 39°51' W 075°16'0 0.0
2017-Sep-13 12:31N 39°51' W 075°16'0 0.0
2017-Sep-13 12:00N 39°51' W 075°16'0 0.0
2017-Sep-13 11:31N 39°51' W 075°16'0 0.0
2017-Sep-13 11:01N 39°51' W 075°16'0 0.0
2017-Sep-13 10:31N 39°51' W 075°16'0 0.6
2017-Sep-13 10:01N 39°51' W 075°16'0 0.0
2017-Sep-13 09:30N 39°51' W 075°16'0 0.0
2017-Sep-13 09:01N 39°51' W 075°16'0 0.0
2017-Sep-13 08:30N 39°51' W 075°16'0 0.0
2017-Sep-13 08:00N 39°51' W 075°16'0 0.0
2017-Sep-13 07:31N 39°51' W 075°16'0 0.0
2017-Sep-13 07:00N 39°51' W 075°16'0 0.0
2017-Sep-13 06:30N 39°51' W 075°16'0 0.0
2017-Sep-13 06:00N 39°51' W 075°16'0 0.0
2017-Sep-13 05:30N 39°51' W 075°16'0 0.0
2017-Sep-13 05:01N 39°51' W 075°16'4 8.6
2017-Sep-13 04:31N 39°53' W 075°11'3 6.9
2017-Sep-13 04:00N 39°56' W 075°08'4 7.5
2017-Sep-13 03:31N 39°59' W 075°05'0 0.9
2017-Sep-13 03:00N 39°59' W 075°05'2 4.2
2017-Sep-13 02:30N 39°58' W 075°07'3 5.4
2017-Sep-13 02:01N 39°55' W 075°08'3 5.5
2017-Sep-13 01:30N 39°53' W 075°09'3 5.3
2017-Sep-13 01:00N 39°54' W 075°12'0 0.8
2017-Sep-13 00:30N 39°54' W 075°13'0 0.7
2017-Sep-13 00:00N 39°54' W 075°12'0 0.6
2017-Sep-12 23:30N 39°54' W 075°12'2 3.8
2017-Sep-12 23:00N 39°53' W 075°10'2 3.5
2017-Sep-12 22:31N 39°54' W 075°08'0 0.9
2017-Sep-12 22:01N 39°54' W 075°09'0 0.0
2017-Sep-12 21:30N 39°54' W 075°09'2 4.5
2017-Sep-12 21:00N 39°53' W 075°11'4 8.1
2017-Sep-12 20:30N 39°51' W 075°16'0 0.5
2017-Sep-12 20:00N 39°51' W 075°16'0 0.0
2017-Sep-12 19:31N 39°51' W 075°16'0 0.0
2017-Sep-12 19:01N 39°51' W 075°16'0 0.0
2017-Sep-12 18:31N 39°51' W 075°16'0 0.0
2017-Sep-12 18:01N 39°51' W 075°16'0 0.0
2017-Sep-12 17:30N 39°51' W 075°16'0 0.0
2017-Sep-12 17:00N 39°51' W 075°16'0 0.0
2017-Sep-12 16:30N 39°51' W 075°16'0 0.0
2017-Sep-12 16:00N 39°51' W 075°16'0 0.0
2017-Sep-12 15:30N 39°51' W 075°16'0 0.0
2017-Sep-12 15:00N 39°51' W 075°16'0 0.0
2017-Sep-12 14:30N 39°51' W 075°16'0 0.0
2017-Sep-12 14:00N 39°51' W 075°16'0 0.1
2017-Sep-12 13:30N 39°51' W 075°16'0 0.0
2017-Sep-12 13:00N 39°51' W 075°16'0 0.0
2017-Sep-12 12:30N 39°51' W 075°16'0 0.1
2017-Sep-12 09:15N 39°51' W 075°16'0 0.0
2017-Sep-12 09:00N 39°51' W 075°16'2 3.1
2017-Sep-12 08:31N 39°52' W 075°14'3 5.4
2017-Sep-12 08:00N 39°54' W 075°12'0 0.0
2017-Sep-12 07:31N 39°54' W 075°12'0 0.0
2017-Sep-12 07:00N 39°54' W 075°12'0 0.0
2017-Sep-12 06:30N 39°54' W 075°12'0 0.0
2017-Sep-12 06:00N 39°54' W 075°12'0 0.0
2017-Sep-12 05:30N 39°54' W 075°12'0 0.0
2017-Sep-12 05:00N 39°54' W 075°12'0 0.0
2017-Sep-12 04:31N 39°54' W 075°12'0 0.0
2017-Sep-12 04:01N 39°54' W 075°12'0 0.0
2017-Sep-12 03:31N 39°54' W 075°12'0 0.0
2017-Sep-12 03:01N 39°54' W 075°12'0 0.0
2017-Sep-12 02:30N 39°54' W 075°12'0 0.0
2017-Sep-12 02:01N 39°54' W 075°12'0 0.0
2017-Sep-12 01:31N 39°54' W 075°12'0 0.0
2017-Sep-12 01:01N 39°54' W 075°12'0 0.0
2017-Sep-12 00:31N 39°54' W 075°12'0 0.0
2017-Sep-12 00:01N 39°54' W 075°12'0 0.0
2017-Sep-11 23:30N 39°54' W 075°12'0 0.0
2017-Sep-11 23:01N 39°54' W 075°12'0 0.0
2017-Sep-11 22:30N 39°54' W 075°12'0 0.0
2017-Sep-11 22:01N 39°54' W 075°12'0 0.0
2017-Sep-11 21:31N 39°54' W 075°12'0 0.0
2017-Sep-11 21:00N 39°54' W 075°12'0 0.0
2017-Sep-11 20:31N 39°54' W 075°12'2 4.5
2017-Sep-11 20:01N 39°52' W 075°13'2 4.1
2017-Sep-11 19:31N 39°51' W 075°16'0 0.5
2017-Sep-11 19:00N 39°51' W 075°16'0 0.0
2017-Sep-11 18:31N 39°51' W 075°16'0 0.0
2017-Sep-11 18:00N 39°51' W 075°16'0 0.0
2017-Sep-11 17:31N 39°51' W 075°16'0 0.0
2017-Sep-11 17:01N 39°51' W 075°16'0 0.0
2017-Sep-11 16:30N 39°51' W 075°16'0 0.0
2017-Sep-11 16:01N 39°51' W 075°16'0 0.0
2017-Sep-11 15:31N 39°51' W 075°16'0 0.0
2017-Sep-11 15:00N 39°51' W 075°16'0 0.0
2017-Sep-11 14:30N 39°51' W 075°16'0 0.0
2017-Sep-11 14:00N 39°51' W 075°16'0 0.0
2017-Sep-11 13:30N 39°51' W 075°16'0 0.0
2017-Sep-11 13:01N 39°51' W 075°16'0 0.1
2017-Sep-11 12:31N 39°51' W 075°16'0 0.0
2017-Sep-11 12:00N 39°51' W 075°16'0 0.0
2017-Sep-11 11:30N 39°51' W 075°16'0 0.0
2017-Sep-11 11:00N 39°51' W 075°16'0 0.0
2017-Sep-11 10:31N 39°51' W 075°16'0 0.0
2017-Sep-11 10:00N 39°51' W 075°16'0 0.0
2017-Sep-11 09:31N 39°51' W 075°16'0 0.0
2017-Sep-11 09:00N 39°51' W 075°16'0 0.0
2017-Sep-11 08:31N 39°51' W 075°16'0 0.6
2017-Sep-11 08:01N 39°51' W 075°16'2 3.6
2017-Sep-11 07:30N 39°52' W 075°14'2 5.0
2017-Sep-11 07:00N 39°54' W 075°12'0 0.0
2017-Sep-11 06:30N 39°54' W 075°12'0 0.0
2017-Sep-11 06:01N 39°54' W 075°12'0 0.0
2017-Sep-11 05:31N 39°54' W 075°12'0 0.0
2017-Sep-11 05:01N 39°54' W 075°12'0 0.0
2017-Sep-11 04:31N 39°54' W 075°12'0 0.0
2017-Sep-11 04:01N 39°54' W 075°12'0 0.0
2017-Sep-11 03:31N 39°54' W 075°12'0 0.0
2017-Sep-11 03:00N 39°54' W 075°12'0 0.0
2017-Sep-11 02:31N 39°54' W 075°12'0 0.0
2017-Sep-11 02:01N 39°54' W 075°12'0 0.0
2017-Sep-11 01:31N 39°54' W 075°12'0 0.0
2017-Sep-11 01:00N 39°54' W 075°12'0 0.0
2017-Sep-11 00:31N 39°54' W 075°12'0 0.0
2017-Sep-11 00:00N 39°54' W 075°12'0 0.0
2017-Sep-10 23:31N 39°54' W 075°12'0 0.0
2017-Sep-10 23:00N 39°54' W 075°12'0 0.0
2017-Sep-10 22:31N 39°54' W 075°12'0 0.0
2017-Sep-10 22:00N 39°54' W 075°12'0 0.0
2017-Sep-10 21:31N 39°54' W 075°12'0 0.0
2017-Sep-10 21:01N 39°54' W 075°12'0 0.0
2017-Sep-10 20:30N 39°54' W 075°12'1 1.4
2017-Sep-10 20:00N 39°54' W 075°13'1 2.0
2017-Sep-10 19:31N 39°53' W 075°12'1 1.7
2017-Sep-10 19:01N 39°53' W 075°11'2 3.6
2017-Sep-10 18:31N 39°53' W 075°08'2 4.2
2017-Sep-10 18:00N 39°55' W 075°08'2 4.2
2017-Sep-10 17:30N 39°57' W 075°08'2 4.8
2017-Sep-10 17:01N 39°59' W 075°05'1 1.1
2017-Sep-10 16:31N 39°59' W 075°05'0 0.0
2017-Sep-10 16:00N 39°59' W 075°05'0 0.0
2017-Sep-10 15:30N 39°59' W 075°05'0 0.0
2017-Sep-10 15:01N 39°59' W 075°05'0 0.0
2017-Sep-10 14:00N 39°59' W 075°05'0 0.0
2017-Sep-10 13:30N 39°59' W 075°05'0 0.0
2017-Sep-10 13:01N 39°59' W 075°05'0 0.0
2017-Sep-10 12:30N 39°59' W 075°05'0 0.0
2017-Sep-10 12:00N 39°59' W 075°05'0 0.1
2017-Sep-10 11:30N 39°59' W 075°05'1 1.5
2017-Sep-10 11:00N 39°59' W 075°05'3 5.6
2017-Sep-10 10:31N 39°57' W 075°08'3 6.3
2017-Sep-10 10:01N 39°54' W 075°08'3 5.6
2017-Sep-10 09:30N 39°53' W 075°12'1 1.9
2017-Sep-10 09:00N 39°54' W 075°13'1 1.4
2017-Sep-10 08:30N 39°54' W 075°12'0 0.0
2017-Sep-10 08:00N 39°54' W 075°12'0 0.0
2017-Sep-10 07:31N 39°54' W 075°12'0 0.0
2017-Sep-10 07:00N 39°54' W 075°12'0 0.0
2017-Sep-10 06:30N 39°54' W 075°12'0 0.0
2017-Sep-10 06:00N 39°54' W 075°12'0 0.0
2017-Sep-10 05:31N 39°54' W 075°12'0 0.0
2017-Sep-10 05:00N 39°54' W 075°12'0 0.0
2017-Sep-10 04:31N 39°54' W 075°12'0 0.0
2017-Sep-10 04:00N 39°54' W 075°12'0 0.0
2017-Sep-10 03:31N 39°54' W 075°12'0 0.0
2017-Sep-10 03:01N 39°54' W 075°12'0 0.0
2017-Sep-10 02:31N 39°54' W 075°12'0 0.0
2017-Sep-10 02:01N 39°54' W 075°12'0 0.0
2017-Sep-10 01:31N 39°54' W 075°12'0 0.0
2017-Sep-10 01:01N 39°54' W 075°12'0 0.0
2017-Sep-10 00:30N 39°54' W 075°12'1 2.2
2017-Sep-10 00:00N 39°53' W 075°12'3 6.5
2017-Sep-09 23:31N 39°51' W 075°16'0 0.2
2017-Sep-09 23:01N 39°51' W 075°16'0 0.2
2017-Sep-09 22:31N 39°51' W 075°16'0 0.0
2017-Sep-09 22:01N 39°51' W 075°16'0 0.0
2017-Sep-09 21:31N 39°51' W 075°16'0 0.0
2017-Sep-09 21:00N 39°51' W 075°16'0 0.0
2017-Sep-09 20:31N 39°51' W 075°16'0 0.0
2017-Sep-09 20:01N 39°51' W 075°16'0 0.0
2017-Sep-09 19:30N 39°51' W 075°16'0 0.0
2017-Sep-09 19:01N 39°51' W 075°16'0 0.0
2017-Sep-09 18:31N 39°51' W 075°16'  
Track history (hours):
 
Tides and Currents Weather Stations Pressure Air Temp Water Temp Dewpoint Dewpoint Depression Visibility Wind Speed Wind Dir Waves Ship Positions

Donna Kay

Owner: Vane Line Bunkering, Philadelphia, PA. More information available from US FCC via Universal Licensing System and Coast Guard Vessel Documentation Center.

Last reported at 2017-Sep-19 18:31 UTC. Time now 2017-Sep-19 18:47 UTC.
Position N 39°50' W 075°23'.

Length 22 m; draft 2.3 m.

Type: Tug. MMSI: 367314440.

Date/timePositionNaut miles runAvg speedWind from/ knotsBaromVisibWave heightAir tempDewpointWater temp
2017-Sep-19 18:31N 39°50' W 075°23'0 0.7
2017-Sep-19 18:00N 39°50' W 075°23'2 4.6
2017-Sep-19 17:30N 39°51' W 075°20'2 4.1
2017-Sep-19 17:00N 39°51' W 075°17'1 2.7
2017-Sep-19 16:31N 39°51' W 075°16'0 0.0
2017-Sep-19 16:01N 39°51' W 075°16'0 0.0
2017-Sep-19 15:30N 39°51' W 075°16'0 0.1
2017-Sep-19 15:00N 39°51' W 075°16'0 0.0
2017-Sep-19 14:30N 39°51' W 075°16'0 0.0
2017-Sep-19 14:00N 39°51' W 075°16'0 0.0
2017-Sep-19 13:30N 39°51' W 075°16'0 0.0
2017-Sep-19 13:00N 39°51' W 075°16'0 0.0
2017-Sep-19 12:30N 39°51' W 075°16'0 0.0
2017-Sep-19 12:00N 39°51' W 075°16'0 0.0
2017-Sep-19 11:30N 39°51' W 075°16'0 0.0
2017-Sep-19 11:00N 39°51' W 075°16'0 0.0
2017-Sep-19 10:30N 39°51' W 075°16'0 0.5
2017-Sep-19 10:00N 39°51' W 075°16'0 0.0
2017-Sep-19 09:30N 39°51' W 075°16'0 0.0
2017-Sep-19 09:00N 39°51' W 075°16'4 7.8
2017-Sep-19 08:30N 39°53' W 075°11'4 7.5
2017-Sep-19 08:00N 39°56' W 075°08'4 8.3
2017-Sep-19 07:31N 39°59' W 075°05'1 1.7
2017-Sep-19 07:00N 39°59' W 075°06'3 6.3
2017-Sep-19 06:30N 39°56' W 075°08'3 6.6
2017-Sep-19 06:00N 39°53' W 075°09'3 5.7
2017-Sep-19 05:30N 39°54' W 075°12'0 0.7
2017-Sep-19 05:00N 39°54' W 075°12'0 0.4
2017-Sep-19 04:30N 39°54' W 075°12'0 0.0
2017-Sep-19 04:00N 39°54' W 075°12'0 0.0
2017-Sep-19 03:30N 39°54' W 075°12'0 0.0
2017-Sep-19 03:00N 39°54' W 075°12'0 0.0
2017-Sep-19 02:30N 39°54' W 075°12'0 0.0
2017-Sep-19 02:00N 39°54' W 075°12'0 0.0
2017-Sep-19 01:30N 39°54' W 075°12'0 0.0
2017-Sep-19 01:00N 39°54' W 075°12'0 0.0
2017-Sep-19 00:30N 39°54' W 075°12'0 0.0
2017-Sep-19 00:01N 39°54' W 075°12'0 0.0
2017-Sep-18 23:30N 39°54' W 075°12'0 0.0
2017-Sep-18 23:00N 39°54' W 075°12'0 0.0
2017-Sep-18 22:30N 39°54' W 075°12'0 0.0
2017-Sep-18 22:00N 39°54' W 075°12'0 0.0
2017-Sep-18 21:30N 39°54' W 075°12'0 0.0
2017-Sep-18 21:00N 39°54' W 075°12'1 1.9
2017-Sep-18 20:30N 39°53' W 075°12'3 6.5
2017-Sep-18 20:01N 39°51' W 075°16'0 0.3
2017-Sep-18 19:31N 39°51' W 075°16'0 0.0
2017-Sep-18 19:01N 39°51' W 075°16'0 0.0
2017-Sep-18 18:30N 39°51' W 075°16'0 0.0
2017-Sep-18 18:00N 39°51' W 075°16'0 0.0
2017-Sep-18 17:30N 39°51' W 075°16'0 0.0
2017-Sep-18 17:00N 39°51' W 075°16'0 0.0
2017-Sep-18 16:30N 39°51' W 075°16'0 0.0
2017-Sep-18 16:00N 39°51' W 075°16'0 0.6
2017-Sep-18 15:30N 39°51' W 075°16'0 0.0
2017-Sep-18 15:00N 39°51' W 075°16'0 0.5
2017-Sep-18 14:30N 39°51' W 075°16'0 0.0
2017-Sep-18 14:01N 39°51' W 075°16'0 0.0
2017-Sep-18 13:30N 39°51' W 075°16'0 0.0
2017-Sep-18 13:00N 39°51' W 075°16'0 0.0
2017-Sep-18 12:30N 39°51' W 075°16'0 0.0
2017-Sep-18 12:00N 39°51' W 075°16'0 0.0
2017-Sep-18 11:30N 39°51' W 075°16'0 0.0
2017-Sep-18 11:00N 39°51' W 075°16'0 0.0
2017-Sep-18 10:30N 39°51' W 075°16'0 0.5
2017-Sep-18 10:00N 39°51' W 075°16'0 0.5
2017-Sep-18 09:30N 39°51' W 075°16'3 6.6
2017-Sep-18 09:00N 39°51' W 075°20'2 4.8
2017-Sep-18 08:30N 39°50' W 075°23'0 0.0
2017-Sep-18 08:00N 39°50' W 075°23'0 0.0
2017-Sep-18 07:30N 39°50' W 075°23'0 0.0
2017-Sep-18 07:00N 39°50' W 075°23'0 0.0
2017-Sep-18 06:30N 39°50' W 075°23'0 0.0
2017-Sep-18 06:00N 39°50' W 075°23'0 0.0
2017-Sep-18 05:30N 39°50' W 075°23'0 0.0
2017-Sep-18 05:00N 39°50' W 075°23'0 0.0
2017-Sep-18 04:30N 39°50' W 075°23'0 0.0
2017-Sep-18 04:00N 39°50' W 075°23'0 0.0
2017-Sep-18 03:30N 39°50' W 075°23'0 0.0
2017-Sep-18 03:00N 39°50' W 075°23'0 0.0
2017-Sep-18 02:30N 39°50' W 075°23'0 0.0
2017-Sep-18 02:00N 39°50' W 075°23'0 0.0
2017-Sep-18 01:30N 39°50' W 075°23'0 0.0
2017-Sep-18 01:00N 39°50' W 075°23'0 0.0
2017-Sep-18 00:30N 39°50' W 075°23'0 0.0
2017-Sep-18 00:00N 39°50' W 075°23'0 0.0
2017-Sep-17 23:30N 39°50' W 075°23'0 0.0
2017-Sep-17 23:00N 39°50' W 075°23'0 0.0
2017-Sep-17 22:31N 39°50' W 075°23'0 0.0
2017-Sep-17 22:01N 39°50' W 075°23'0 0.0
2017-Sep-17 21:31N 39°50' W 075°23'0 0.0
2017-Sep-17 21:01N 39°50' W 075°23'0 0.0
2017-Sep-17 20:31N 39°50' W 075°23'0 0.0
2017-Sep-17 20:00N 39°50' W 075°23'0 0.0
2017-Sep-17 19:31N 39°50' W 075°23'0 0.0
2017-Sep-17 19:01N 39°50' W 075°23'0 0.0
2017-Sep-17 18:31N 39°50' W 075°23'0 0.0
2017-Sep-17 18:01N 39°50' W 075°23'0 0.0
2017-Sep-17 17:30N 39°50' W 075°23'0 0.0
2017-Sep-17 17:01N 39°50' W 075°23'0 0.0
2017-Sep-17 16:30N 39°50' W 075°23'0 0.0
2017-Sep-17 16:01N 39°50' W 075°23'0 0.0
2017-Sep-17 15:31N 39°50' W 075°23'0 0.0
2017-Sep-17 15:01N 39°50' W 075°23'0 0.0
2017-Sep-17 14:30N 39°50' W 075°23'0 0.0
2017-Sep-17 14:00N 39°50' W 075°23'0 0.0
2017-Sep-17 13:30N 39°50' W 075°23'0 0.0
2017-Sep-17 13:00N 39°50' W 075°23'0 0.0
2017-Sep-17 12:30N 39°50' W 075°23'0 0.0
2017-Sep-17 12:00N 39°50' W 075°23'0 0.0
2017-Sep-17 11:30N 39°50' W 075°23'0 0.0
2017-Sep-17 11:00N 39°50' W 075°23'0 0.0
2017-Sep-17 10:30N 39°50' W 075°23'0 0.0
2017-Sep-17 10:00N 39°50' W 075°23'0 0.0
2017-Sep-17 09:30N 39°50' W 075°23'0 0.0
2017-Sep-17 09:00N 39°50' W 075°23'0 0.0
2017-Sep-17 08:30N 39°50' W 075°23'0 0.0
2017-Sep-17 08:00N 39°50' W 075°23'0 0.0
2017-Sep-17 07:30N 39°50' W 075°23'0 0.0
2017-Sep-17 07:00N 39°50' W 075°23'0 0.0
2017-Sep-17 06:30N 39°50' W 075°23'0 0.0
2017-Sep-17 06:00N 39°50' W 075°23'0 0.0
2017-Sep-17 05:31N 39°50' W 075°23'0 0.0
2017-Sep-17 05:01N 39°50' W 075°23'0 0.0
2017-Sep-17 04:30N 39°50' W 075°23'0 0.0
2017-Sep-17 04:00N 39°50' W 075°23'0 0.0
2017-Sep-17 03:30N 39°50' W 075°23'0 0.0
2017-Sep-17 03:00N 39°50' W 075°23'0 0.0
2017-Sep-17 02:31N 39°50' W 075°23'0 0.0
2017-Sep-17 02:01N 39°50' W 075°23'0 0.0
2017-Sep-17 01:30N 39°50' W 075°23'0 0.0
2017-Sep-17 01:00N 39°50' W 075°23'1 2.6
2017-Sep-17 00:30N 39°50' W 075°22'3 5.9
2017-Sep-17 00:01N 39°51' W 075°18'2 3.3
2017-Sep-16 23:31N 39°51' W 075°16'0 0.5
2017-Sep-16 23:00N 39°51' W 075°16'0 0.0
2017-Sep-16 22:30N 39°51' W 075°16'0 0.0
2017-Sep-16 22:01N 39°51' W 075°16'0 0.0
2017-Sep-16 21:30N 39°51' W 075°16'0 0.0
2017-Sep-16 21:01N 39°51' W 075°16'0 0.0
2017-Sep-16 20:31N 39°51' W 075°16'0 0.0
2017-Sep-16 20:01N 39°51' W 075°16'0 0.0
2017-Sep-16 19:30N 39°51' W 075°16'0 0.0
2017-Sep-16 19:00N 39°51' W 075°16'0 0.0
2017-Sep-16 18:30N 39°51' W 075°16'0 0.0
2017-Sep-16 18:00N 39°51' W 075°16'0 0.0
2017-Sep-16 17:30N 39°51' W 075°16'0 0.0
2017-Sep-16 17:01N 39°51' W 075°16'0 0.1
2017-Sep-16 16:31N 39°51' W 075°16'0 0.0
2017-Sep-16 16:00N 39°51' W 075°16'0 0.0
2017-Sep-16 15:30N 39°51' W 075°16'0 0.0
2017-Sep-16 15:00N 39°51' W 075°16'0 0.0
2017-Sep-16 14:31N 39°51' W 075°16'0 0.0
2017-Sep-16 14:01N 39°51' W 075°16'0 0.0
2017-Sep-16 13:30N 39°51' W 075°16'0 0.0
2017-Sep-16 13:00N 39°51' W 075°16'0 0.1
2017-Sep-16 12:31N 39°51' W 075°15'1 2.1
2017-Sep-16 12:00N 39°51' W 075°17'5 9.6
2017-Sep-16 11:30N 39°50' W 075°23'0 0.3
2017-Sep-16 11:01N 39°50' W 075°23'0 0.0
2017-Sep-16 10:30N 39°50' W 075°23'0 0.0
2017-Sep-16 10:00N 39°50' W 075°23'0 0.0
2017-Sep-16 09:31N 39°50' W 075°23'0 0.0
2017-Sep-16 09:00N 39°50' W 075°23'0 0.0
2017-Sep-16 08:31N 39°50' W 075°23'0 0.0
2017-Sep-16 08:00N 39°50' W 075°23'0 0.0
2017-Sep-16 07:31N 39°50' W 075°23'0 0.0
2017-Sep-16 07:01N 39°50' W 075°23'0 0.0
2017-Sep-16 06:31N 39°50' W 075°23'0 0.0
2017-Sep-16 06:01N 39°50' W 075°23'0 0.0
2017-Sep-16 05:31N 39°50' W 075°23'0 0.0
2017-Sep-16 05:01N 39°50' W 075°23'0 0.0
2017-Sep-16 04:31N 39°50' W 075°23'0 0.0
2017-Sep-16 04:00N 39°50' W 075°23'0 0.0
2017-Sep-16 03:31N 39°50' W 075°23'0 0.0
2017-Sep-16 03:00N 39°50' W 075°23'0 0.0
2017-Sep-16 02:30N 39°50' W 075°23'0 0.0
2017-Sep-16 02:00N 39°50' W 075°23'0 0.0
2017-Sep-16 01:30N 39°50' W 075°23'0 0.0
2017-Sep-16 01:00N 39°50' W 075°23'0 0.0
2017-Sep-16 00:31N 39°50' W 075°23'0 0.0
2017-Sep-16 00:00N 39°50' W 075°23'3 5.1
2017-Sep-15 23:30N 39°51' W 075°20'3 6.4
2017-Sep-15 23:01N 39°51' W 075°16'0 0.7
2017-Sep-15 22:31N 39°51' W 075°16'0 0.1
2017-Sep-15 22:01N 39°51' W 075°16'0 0.0
2017-Sep-15 21:31N 39°51' W 075°16'0 0.0
2017-Sep-15 21:01N 39°51' W 075°16'0 0.0
2017-Sep-15 20:30N 39°51' W 075°16'0 0.0
2017-Sep-15 20:01N 39°51' W 075°16'0 0.0
2017-Sep-15 19:30N 39°51' W 075°16'0 0.0
2017-Sep-15 19:01N 39°51' W 075°16'0 0.0
2017-Sep-15 18:30N 39°51' W 075°16'0 0.0
2017-Sep-15 18:01N 39°51' W 075°16'0 0.0
2017-Sep-15 17:31N 39°51' W 075°16'0 0.0
2017-Sep-15 17:00N 39°51' W 075°16'0 0.0
2017-Sep-15 16:31N 39°51' W 075°16'0 0.1
2017-Sep-15 16:01N 39°51' W 075°16'0 0.0
2017-Sep-15 15:31N 39°51' W 075°16'0 0.0
2017-Sep-15 15:01N 39°51' W 075°16'0 0.0
2017-Sep-15 14:30N 39°51' W 075°16'0 0.0
2017-Sep-15 14:00N 39°51' W 075°16'0 0.0
2017-Sep-15 13:30N 39°51' W 075°16'0 0.0
2017-Sep-15 13:00N 39°51' W 075°16'0 0.0
2017-Sep-15 12:30N 39°51' W 075°16'0 0.2
2017-Sep-15 12:01N 39°51' W 075°15'0 0.5
2017-Sep-15 11:30N 39°51' W 075°16'0 0.0
2017-Sep-15 11:01N 39°51' W 075°16'0 0.0
2017-Sep-15 10:31N 39°51' W 075°16'0 0.3
2017-Sep-15 10:00N 39°51' W 075°16'4 8.8
2017-Sep-15 09:31N 39°50' W 075°22'3 6.0
2017-Sep-15 09:01N 39°48' W 075°24'0 0.1
2017-Sep-15 08:30N 39°48' W 075°24'1 2.3
2017-Sep-15 08:00N 39°49' W 075°23'4 7.6
2017-Sep-15 07:30N 39°51' W 075°19'4 7.7
2017-Sep-15 07:00N 39°52' W 075°14'4 7.5
2017-Sep-15 06:30N 39°53' W 075°09'3 6.8
2017-Sep-15 06:00N 39°56' W 075°08'4 7.0
2017-Sep-15 05:30N 39°59' W 075°05'1 1.3
2017-Sep-15 05:00N 39°59' W 075°04'1 0.9
2017-Sep-15 04:27N 39°59' W 075°05'0 0.0
2017-Sep-15 04:00N 39°59' W 075°05'0 0.0
2017-Sep-15 03:30N 39°59' W 075°05'0 0.0
2017-Sep-15 03:00N 39°59' W 075°05'0 0.0
2017-Sep-15 02:30N 39°59' W 075°05'0 0.0
2017-Sep-15 02:00N 39°59' W 075°05'0 0.0
2017-Sep-15 01:31N 39°59' W 075°05'0 0.0
2017-Sep-15 01:01N 39°59' W 075°05'0 0.5
2017-Sep-15 00:31N 39°59' W 075°05'4 8.3
2017-Sep-15 00:00N 39°55' W 075°08'1 2.9
2017-Sep-14 23:30N 39°54' W 075°08'0 0.1
2017-Sep-14 23:00N 39°54' W 075°09'0 0.0
2017-Sep-14 22:31N 39°54' W 075°09'0 0.0
2017-Sep-14 22:00N 39°54' W 075°09'0 0.0
2017-Sep-14 21:30N 39°54' W 075°09'0 0.0
2017-Sep-14 21:00N 39°54' W 075°09'0 0.0
2017-Sep-14 20:30N 39°54' W 075°09'0 0.0
2017-Sep-14 20:01N 39°54' W 075°09'0 0.6
2017-Sep-14 19:30N 39°54' W 075°08'3 5.2
2017-Sep-14 19:01N 39°53' W 075°11'1 2.3
2017-Sep-14 18:30N 39°54' W 075°12'0 0.0
2017-Sep-14 18:00N 39°54' W 075°12'0 0.4
2017-Sep-14 17:31N 39°54' W 075°13'1 2.7
2017-Sep-14 17:01N 39°53' W 075°12'3 5.7
2017-Sep-14 16:30N 39°54' W 075°08'4 7.2
2017-Sep-14 16:01N 39°58' W 075°08'3 5.9
2017-Sep-14 15:30N 39°59' W 075°05'2 3.4
2017-Sep-14 15:01N 39°58' W 075°07'3 6.7
2017-Sep-14 14:31N 39°55' W 075°08'1 2.6
2017-Sep-14 14:01N 39°54' W 075°09'0 0.0
2017-Sep-14 13:31N 39°54' W 075°09'0 0.0
2017-Sep-14 13:01N 39°54' W 075°09'0 0.0
2017-Sep-14 12:31N 39°54' W 075°09'2 3.0
2017-Sep-14 12:00N 39°53' W 075°10'4 8.9
2017-Sep-14 11:31N 39°51' W 075°15'5 9.1
2017-Sep-14 11:00N 39°50' W 075°21'1 3.0
2017-Sep-14 10:31N 39°50' W 075°23'0 0.0
2017-Sep-14 10:00N 39°50' W 075°23'0 0.0
2017-Sep-14 09:31N 39°50' W 075°23'0 0.0
2017-Sep-14 09:00N 39°50' W 075°23'0 0.0
2017-Sep-14 08:31N 39°50' W 075°23'0 0.0
2017-Sep-14 08:00N 39°50' W 075°23'0 0.0
2017-Sep-14 07:31N 39°50' W 075°23'0 0.0
2017-Sep-14 07:00N 39°50' W 075°23'0 0.0
2017-Sep-14 06:30N 39°50' W 075°23'0 0.0
2017-Sep-14 06:01N 39°50' W 075°23'0 0.0
2017-Sep-14 05:30N 39°50' W 075°23'0 0.0
2017-Sep-14 05:01N 39°50' W 075°23'0 0.0
2017-Sep-14 04:31N 39°50' W 075°23'0 0.0
2017-Sep-14 04:01N 39°50' W 075°23'0 0.0
2017-Sep-14 03:31N 39°50' W 075°23'0 0.0
2017-Sep-14 03:00N 39°50' W 075°23'0 0.0
2017-Sep-14 02:31N 39°50' W 075°23'0 0.0
2017-Sep-14 02:00N 39°50' W 075°23'0 0.0
2017-Sep-14 01:31N 39°50' W 075°23'0 0.0
2017-Sep-14 01:00N 39°50' W 075°23'0 0.0
2017-Sep-14 00:30N 39°50' W 075°23'0 0.0
2017-Sep-14 00:00N 39°50' W 075°23'0 0.0
2017-Sep-13 23:30N 39°50' W 075°23'0 0.0
2017-Sep-13 23:00N 39°50' W 075°23'0 0.1
2017-Sep-13 22:30N 39°50' W 075°23'3 5.7
2017-Sep-13 22:00N 39°51' W 075°20'3 6.1
2017-Sep-13 21:31N 39°51' W 075°16'0 0.6
2017-Sep-13 21:00N 39°51' W 075°16'0 0.0
2017-Sep-13 20:31N 39°51' W 075°16'0 0.0
2017-Sep-13 20:00N 39°51' W 075°16'0 0.0
2017-Sep-13 19:30N 39°51' W 075°16'0 0.0
2017-Sep-13 19:00N 39°51' W 075°16'0 0.0
2017-Sep-13 18:30N 39°51' W 075°16'0 0.0
2017-Sep-13 18:00N 39°51' W 075°16'0 0.0
2017-Sep-13 17:30N 39°51' W 075°16'0 0.0
2017-Sep-13 17:00N 39°51' W 075°16'0 0.0
2017-Sep-13 16:30N 39°51' W 075°16'0 0.0
2017-Sep-13 16:00N 39°51' W 075°16'0 0.0
2017-Sep-13 15:30N 39°51' W 075°16'0 0.0
2017-Sep-13 15:00N 39°51' W 075°16'0 0.0
2017-Sep-13 14:31N 39°51' W 075°16'0 0.1
2017-Sep-13 14:01N 39°51' W 075°16'0 0.0
2017-Sep-13 13:30N 39°51' W 075°16'0 0.0
2017-Sep-13 13:00N 39°51' W 075°16'0 0.0
2017-Sep-13 12:31N 39°51' W 075°16'0 0.0
2017-Sep-13 12:00N 39°51' W 075°16'0 0.0
2017-Sep-13 11:31N 39°51' W 075°16'0 0.0
2017-Sep-13 11:01N 39°51' W 075°16'0 0.0
2017-Sep-13 10:31N 39°51' W 075°16'0 0.6
2017-Sep-13 10:01N 39°51' W 075°16'0 0.0
2017-Sep-13 09:30N 39°51' W 075°16'0 0.0
2017-Sep-13 09:01N 39°51' W 075°16'0 0.0
2017-Sep-13 08:30N 39°51' W 075°16'0 0.0
2017-Sep-13 08:00N 39°51' W 075°16'0 0.0
2017-Sep-13 07:31N 39°51' W 075°16'0 0.0
2017-Sep-13 07:00N 39°51' W 075°16'0 0.0
2017-Sep-13 06:30N 39°51' W 075°16'0 0.0
2017-Sep-13 06:00N 39°51' W 075°16'0 0.0
2017-Sep-13 05:30N 39°51' W 075°16'0 0.0
2017-Sep-13 05:01N 39°51' W 075°16'4 8.6
2017-Sep-13 04:31N 39°53' W 075°11'3 6.9
2017-Sep-13 04:00N 39°56' W 075°08'4 7.5
2017-Sep-13 03:31N 39°59' W 075°05'0 0.9
2017-Sep-13 03:00N 39°59' W 075°05'2 4.2
2017-Sep-13 02:30N 39°58' W 075°07'3 5.4
2017-Sep-13 02:01N 39°55' W 075°08'3 5.5
2017-Sep-13 01:30N 39°53' W 075°09'3 5.3
2017-Sep-13 01:00N 39°54' W 075°12'0 0.8
2017-Sep-13 00:30N 39°54' W 075°13'0 0.7
2017-Sep-13 00:00N 39°54' W 075°12'0 0.6
2017-Sep-12 23:30N 39°54' W 075°12'2 3.8
2017-Sep-12 23:00N 39°53' W 075°10'2 3.5
2017-Sep-12 22:31N 39°54' W 075°08'0 0.9
2017-Sep-12 22:01N 39°54' W 075°09'0 0.0
2017-Sep-12 21:30N 39°54' W 075°09'2 4.5
2017-Sep-12 21:00N 39°53' W 075°11'4 8.1
2017-Sep-12 20:30N 39°51' W 075°16'0 0.5
2017-Sep-12 20:00N 39°51' W 075°16'0 0.0
2017-Sep-12 19:31N 39°51' W 075°16'0 0.0
2017-Sep-12 19:01N 39°51' W 075°16'0 0.0
2017-Sep-12 18:31N 39°51' W 075°16'0 0.0
2017-Sep-12 18:01N 39°51' W 075°16'0 0.0
2017-Sep-12 17:30N 39°51' W 075°16'0 0.0
2017-Sep-12 17:00N 39°51' W 075°16'0 0.0
2017-Sep-12 16:30N 39°51' W 075°16'0 0.0
2017-Sep-12 16:00N 39°51' W 075°16'0 0.0
2017-Sep-12 15:30N 39°51' W 075°16'0 0.0
2017-Sep-12 15:00N 39°51' W 075°16'0 0.0
2017-Sep-12 14:30N 39°51' W 075°16'0 0.0
2017-Sep-12 14:00N 39°51' W 075°16'0 0.1
2017-Sep-12 13:30N 39°51' W 075°16'0 0.0
2017-Sep-12 13:00N 39°51' W 075°16'0 0.0
2017-Sep-12 12:30N 39°51' W 075°16'0 0.1
2017-Sep-12 09:15N 39°51' W 075°16'0 0.0
2017-Sep-12 09:00N 39°51' W 075°16'2 3.1
2017-Sep-12 08:31N 39°52' W 075°14'3 5.4
2017-Sep-12 08:00N 39°54' W 075°12'0 0.0
2017-Sep-12 07:31N 39°54' W 075°12'0 0.0
2017-Sep-12 07:00N 39°54' W 075°12'0 0.0
2017-Sep-12 06:30N 39°54' W 075°12'0 0.0
2017-Sep-12 06:00N 39°54' W 075°12'0 0.0
2017-Sep-12 05:30N 39°54' W 075°12'0 0.0
2017-Sep-12 05:00N 39°54' W 075°12'0 0.0
2017-Sep-12 04:31N 39°54' W 075°12'0 0.0
2017-Sep-12 04:01N 39°54' W 075°12'0 0.0
2017-Sep-12 03:31N 39°54' W 075°12'0 0.0
2017-Sep-12 03:01N 39°54' W 075°12'0 0.0
2017-Sep-12 02:30N 39°54' W 075°12'0 0.0
2017-Sep-12 02:01N 39°54' W 075°12'0 0.0
2017-Sep-12 01:31N 39°54' W 075°12'0 0.0
2017-Sep-12 01:01N 39°54' W 075°12'0 0.0
2017-Sep-12 00:31N 39°54' W 075°12'0 0.0
2017-Sep-12 00:01N 39°54' W 075°12'0 0.0
2017-Sep-11 23:30N 39°54' W 075°12'0 0.0
2017-Sep-11 23:01N 39°54' W 075°12'0 0.0
2017-Sep-11 22:30N 39°54' W 075°12'0 0.0
2017-Sep-11 22:01N 39°54' W 075°12'0 0.0
2017-Sep-11 21:31N 39°54' W 075°12'0 0.0
2017-Sep-11 21:00N 39°54' W 075°12'0 0.0
2017-Sep-11 20:31N 39°54' W 075°12'2 4.5
2017-Sep-11 20:01N 39°52' W 075°13'2 4.1
2017-Sep-11 19:31N 39°51' W 075°16'0 0.5
2017-Sep-11 19:00N 39°51' W 075°16'0 0.0
2017-Sep-11 18:31N 39°51' W 075°16'0 0.0
2017-Sep-11 18:00N 39°51' W 075°16'0 0.0
2017-Sep-11 17:31N 39°51' W 075°16'0 0.0
2017-Sep-11 17:01N 39°51' W 075°16'0 0.0
2017-Sep-11 16:30N 39°51' W 075°16'0 0.0
2017-Sep-11 16:01N 39°51' W 075°16'0 0.0
2017-Sep-11 15:31N 39°51' W 075°16'0 0.0
2017-Sep-11 15:00N 39°51' W 075°16'0 0.0
2017-Sep-11 14:30N 39°51' W 075°16'0 0.0
2017-Sep-11 14:00N 39°51' W 075°16'0 0.0
2017-Sep-11 13:30N 39°51' W 075°16'0 0.0
2017-Sep-11 13:01N 39°51' W 075°16'0 0.1
2017-Sep-11 12:31N 39°51' W 075°16'0 0.0
2017-Sep-11 12:00N 39°51' W 075°16'0 0.0
2017-Sep-11 11:30N 39°51' W 075°16'0 0.0
2017-Sep-11 11:00N 39°51' W 075°16'0 0.0
2017-Sep-11 10:31N 39°51' W 075°16'0 0.0
2017-Sep-11 10:00N 39°51' W 075°16'0 0.0
2017-Sep-11 09:31N 39°51' W 075°16'0 0.0
2017-Sep-11 09:00N 39°51' W 075°16'0 0.0
2017-Sep-11 08:31N 39°51' W 075°16'0 0.6
2017-Sep-11 08:01N 39°51' W 075°16'2 3.6
2017-Sep-11 07:30N 39°52' W 075°14'2 5.0
2017-Sep-11 07:00N 39°54' W 075°12'0 0.0
2017-Sep-11 06:30N 39°54' W 075°12'0 0.0
2017-Sep-11 06:01N 39°54' W 075°12'0 0.0
2017-Sep-11 05:31N 39°54' W 075°12'0 0.0
2017-Sep-11 05:01N 39°54' W 075°12'0 0.0
2017-Sep-11 04:31N 39°54' W 075°12'0 0.0
2017-Sep-11 04:01N 39°54' W 075°12'0 0.0
2017-Sep-11 03:31N 39°54' W 075°12'0 0.0
2017-Sep-11 03:00N 39°54' W 075°12'0 0.0
2017-Sep-11 02:31N 39°54' W 075°12'0 0.0
2017-Sep-11 02:01N 39°54' W 075°12'0 0.0
2017-Sep-11 01:31N 39°54' W 075°12'0 0.0
2017-Sep-11 01:00N 39°54' W 075°12'0 0.0
2017-Sep-11 00:31N 39°54' W 075°12'0 0.0
2017-Sep-11 00:00N 39°54' W 075°12'0 0.0
2017-Sep-10 23:31N 39°54' W 075°12'0 0.0
2017-Sep-10 23:00N 39°54' W 075°12'0 0.0
2017-Sep-10 22:31N 39°54' W 075°12'0 0.0
2017-Sep-10 22:00N 39°54' W 075°12'0 0.0
2017-Sep-10 21:31N 39°54' W 075°12'0 0.0
2017-Sep-10 21:01N 39°54' W 075°12'0 0.0
2017-Sep-10 20:30N 39°54' W 075°12'1 1.4
2017-Sep-10 20:00N 39°54' W 075°13'1 2.0
2017-Sep-10 19:31N 39°53' W 075°12'1 1.7
2017-Sep-10 19:01N 39°53' W 075°11'2 3.6
2017-Sep-10 18:31N 39°53' W 075°08'2 4.2
2017-Sep-10 18:00N 39°55' W 075°08'2 4.2
2017-Sep-10 17:30N 39°57' W 075°08'2 4.8
2017-Sep-10 17:01N 39°59' W 075°05'1 1.1
2017-Sep-10 16:31N 39°59' W 075°05'0 0.0
2017-Sep-10 16:00N 39°59' W 075°05'0 0.0
2017-Sep-10 15:30N 39°59' W 075°05'0 0.0
2017-Sep-10 15:01N 39°59' W 075°05'0 0.0
2017-Sep-10 14:00N 39°59' W 075°05'0 0.0
2017-Sep-10 13:30N 39°59' W 075°05'0 0.0
2017-Sep-10 13:01N 39°59' W 075°05'0 0.0
2017-Sep-10 12:30N 39°59' W 075°05'0 0.0
2017-Sep-10 12:00N 39°59' W 075°05'0 0.1
2017-Sep-10 11:30N 39°59' W 075°05'1 1.5
2017-Sep-10 11:00N 39°59' W 075°05'3 5.6
2017-Sep-10 10:31N 39°57' W 075°08'3 6.3
2017-Sep-10 10:01N 39°54' W 075°08'3 5.6
2017-Sep-10 09:30N 39°53' W 075°12'1 1.9
2017-Sep-10 09:00N 39°54' W 075°13'1 1.4
2017-Sep-10 08:30N 39°54' W 075°12'0 0.0
2017-Sep-10 08:00N 39°54' W 075°12'0 0.0
2017-Sep-10 07:31N 39°54' W 075°12'0 0.0
2017-Sep-10 07:00N 39°54' W 075°12'0 0.0
2017-Sep-10 06:30N 39°54' W 075°12'0 0.0
2017-Sep-10 06:00N 39°54' W 075°12'0 0.0
2017-Sep-10 05:31N 39°54' W 075°12'0 0.0
2017-Sep-10 05:00N 39°54' W 075°12'0 0.0
2017-Sep-10 04:31N 39°54' W 075°12'0 0.0
2017-Sep-10 04:00N 39°54' W 075°12'0 0.0
2017-Sep-10 03:31N 39°54' W 075°12'0 0.0
2017-Sep-10 03:01N 39°54' W 075°12'0 0.0
2017-Sep-10 02:31N 39°54' W 075°12'0 0.0
2017-Sep-10 02:01N 39°54' W 075°12'0 0.0
2017-Sep-10 01:31N 39°54' W 075°12'0 0.0
2017-Sep-10 01:01N 39°54' W 075°12'0 0.0
2017-Sep-10 00:30N 39°54' W 075°12'1 2.2
2017-Sep-10 00:00N 39°53' W 075°12'3 6.5
2017-Sep-09 23:31N 39°51' W 075°16'0 0.2
2017-Sep-09 23:01N 39°51' W 075°16'0 0.2
2017-Sep-09 22:31N 39°51' W 075°16'0 0.0
2017-Sep-09 22:01N 39°51' W 075°16'0 0.0
2017-Sep-09 21:31N 39°51' W 075°16'0 0.0
2017-Sep-09 21:00N 39°51' W 075°16'0 0.0
2017-Sep-09 20:31N 39°51' W 075°16'0 0.0
2017-Sep-09 20:01N 39°51' W 075°16'0 0.0
2017-Sep-09 19:30N 39°51' W 075°16'0 0.0
2017-Sep-09 19:01N 39°51' W 075°16'0 0.0
2017-Sep-09 18:31N 39°51' W 075°16'  

Dump ship's entire track history